M I D A S
Marine Information and Data Acquisition System
Tripno 829 of the Zeeleeuw from 2004-10-29 06:24:00 to 2004-10-29 15:40:00
Back to CruiseResearch ActivitiesStationsMapUnderway DataData graphs

EquipmentUnitsComments
TimeDGPSUTC
LatitudeDGPSDM.mWGS84
LongitudeDGPSDM.mWGS84
SpeedMeteo Stationm/sRelative wind speed
DirectionMeteo StationdegRelative wind direction
TemperatureMeteo Stationdeg CelciusAir temperature
PressureMeteo StationPaAtmospheric pressure
HumidityMeteo Station%Relative humidity
Missing or incorrect values are displayed as -999
Metereological data collected by the RV Zeeleeuw from 2004-10-29 06:24:00 to 2004-10-29 15:40:00
                                                                                    Next 1000 lines
Time Latitude Longitude Speed Direction Temperature Pressure Humidity
2004-10-29 06:24:07 51°13.597 2°56.11 2.4 33 10.3 99570 92
2004-10-29 06:24:14 51°13.597 2°56.111 2.3 36 10.3 99570 92
2004-10-29 06:24:18 51°13.597 2°56.111 3.2 30 10.3 99570 92
2004-10-29 06:24:24 51°13.597 2°56.111 2.7 36 10.3 99570 92
2004-10-29 06:24:28 51°13.597 2°56.111 2.6 44 10.3 99570 92
2004-10-29 06:24:34 51°13.596 2°56.111 2.6 35 10.3 99570 92
2004-10-29 06:24:39 51°13.596 2°56.11 2.6 40 10.3 99570 92
2004-10-29 06:24:42 51°13.596 2°56.11 2.8 47 10.3 99570 92
2004-10-29 06:24:48 51°13.596 2°56.11 2.7 47 10.3 99570 92
2004-10-29 06:24:54 51°13.596 2°56.11 2.8 42 10.3 99570 92
2004-10-29 06:24:58 51°13.596 2°56.11 2.9 63 10.3 99570 92
2004-10-29 06:25:04 51°13.596 2°56.108 2.7 65 10.3 99570 92
2004-10-29 06:25:07 51°13.597 2°56.107 2.1 52 10.3 99570 92
2004-10-29 06:25:14 51°13.597 2°56.102 1.8 55 10.3 99570 92
2004-10-29 06:25:19 51°13.598 2°56.097 1.7 61 10.3 99570 92
2004-10-29 06:25:24 51°13.6 2°56.091 1.4 72 10.3 99570 92
2004-10-29 06:25:29 51°13.601 2°56.085 1.8 74 10.3 99570 92
2004-10-29 06:25:34 51°13.603 2°56.077 1.6 65 10.3 99570 92
2004-10-29 06:25:40 51°13.606 2°56.068 2.4 78 10.3 99570 92
2004-10-29 06:25:44 51°13.607 2°56.061 2.2 63 10.3 99570 92
2004-10-29 06:25:47 51°13.608 2°56.056 2.2 95 10.3 99570 92
2004-10-29 06:25:54 51°13.611 2°56.044 2.1 89 10.3 99570 92
2004-10-29 06:26:00 51°13.614 2°56.033 2.3 82 10.3 99570 92
2004-10-29 06:26:03 51°13.615 2°56.028 2.2 73 10.3 99570 92
2004-10-29 06:26:08 51°13.618 2°56.018 1.7 89 10.3 99570 92
2004-10-29 06:26:14 51°13.62 2°56.006 1.6 99 10.3 99570 92
2004-10-29 06:26:19 51°13.623 2°55.996 1.4 60 10.3 99570 92
2004-10-29 06:26:24 51°13.626 2°55.986 1 70 10.3 99570 92
2004-10-29 06:26:30 51°13.63 2°55.973 0.9 91 10.3 99570 92
2004-10-29 06:26:34 51°13.632 2°55.965 1 58 10.3 99570 92
2004-10-29 06:26:39 51°13.636 2°55.954 1.1 66 10.3 99570 92
2004-10-29 06:26:44 51°13.639 2°55.944 0.8 73 10.3 99570 92
2004-10-29 06:26:50 51°13.644 2°55.931 0.4 75 10.3 99570 92
2004-10-29 06:26:54 51°13.647 2°55.922 0.4 91 10.3 99570 92
2004-10-29 06:27:00 51°13.652 2°55.91 0.7 96 10.3 99570 92
2004-10-29 06:27:02 51°13.653 2°55.905 0.6 81 10.3 99570 92
2004-10-29 06:27:09 51°13.658 2°55.89 0.5 81 10.3 99570 92
2004-10-29 06:27:14 51°13.662 2°55.88 0.4 84 10.3 99570 92
2004-10-29 06:27:18 51°13.665 2°55.872 0.7 88 10.3 99570 92
2004-10-29 06:27:22 51°13.667 2°55.863 0.9 92 10.3 99570 92
2004-10-29 06:27:30 51°13.671 2°55.847 1.5 119 10.3 99570 92
2004-10-29 06:27:34 51°13.674 2°55.839 1.5 110 10.3 99570 92
2004-10-29 06:27:39 51°13.676 2°55.83 1.2 135 10.3 99570 92
2004-10-29 06:27:42 51°13.678 2°55.824 1.1 129 10.3 99570 92
2004-10-29 06:27:48 51°13.68 2°55.812 1.4 139 10.3 99570 92
2004-10-29 06:27:54 51°13.683 2°55.801 1.7 142 10.3 99570 92
2004-10-29 06:27:59 51°13.684 2°55.792 2.2 162 10.3 99570 92
2004-10-29 06:28:02 51°13.685 2°55.786 1.9 142 10.3 99580 92
2004-10-29 06:28:08 51°13.687 2°55.776 1.9 108 10.3 99580 92
2004-10-29 06:28:14 51°13.688 2°55.766 1.8 112 10.3 99570 92
2004-10-29 06:28:19 51°13.689 2°55.76 2.1 131 10.3 99570 92
2004-10-29 06:28:22 51°13.689 2°55.758 1.6 110 10.2 99570 92
2004-10-29 06:28:28 51°13.689 2°55.756 2 95 10.2 99570 92
2004-10-29 06:28:32 51°13.69 2°55.757 1.8 98 10.3 99570 92
2004-10-29 06:28:38 51°13.691 2°55.758 1.7 101 10.3 99570 92
2004-10-29 06:28:44 51°13.693 2°55.76 1.9 107 10.3 99570 92
2004-10-29 06:28:47 51°13.694 2°55.761 1.9 107 10.3 99570 92
2004-10-29 06:28:54 51°13.696 2°55.762 2.2 125 10.3 99570 92
2004-10-29 06:28:58 51°13.696 2°55.763 1.8 141 10.3 99570 92
2004-10-29 06:29:04 51°13.696 2°55.762 1.7 146 10.3 99570 92
2004-10-29 06:29:09 51°13.696 2°55.761 2.5 161 10.3 99570 92
2004-10-29 06:29:14 51°13.695 2°55.758 2.2 159 10.3 99570 92
2004-10-29 06:29:18 51°13.693 2°55.757 2.5 157 10.3 99570 92
2004-10-29 06:29:24 51°13.691 2°55.753 2.4 151 10.3 99570 92
2004-10-29 06:29:30 51°13.688 2°55.75 2.7 160 10.3 99570 92
2004-10-29 06:29:34 51°13.686 2°55.749 2.4 165 10.3 99580 92
2004-10-29 06:29:40 51°13.685 2°55.747 2.1 160 10.3 99580 92
2004-10-29 06:29:44 51°13.686 2°55.747 1.7 166 10.2 99570 92
2004-10-29 06:29:50 51°13.688 2°55.747 1 156 10.2 99570 92
2004-10-29 06:29:54 51°13.69 2°55.746 0.8 152 10.3 99570 92
2004-10-29 06:29:59 51°13.694 2°55.745 0.6 19 10.3 99570 92
2004-10-29 06:30:04 51°13.699 2°55.743 0.8 1 10.2 99570 92
2004-10-29 06:30:09 51°13.704 2°55.74 0.5 15 10.2 99570 92
2004-10-29 06:30:14 51°13.709 2°55.735 1 103 10.2 99570 92
2004-10-29 06:30:19 51°13.714 2°55.73 1 94 10.2 99570 92
2004-10-29 06:30:24 51°13.72 2°55.725 0.7 91 10.2 99580 92
2004-10-29 06:30:28 51°13.724 2°55.72 0.3 91 10.2 99580 92
2004-10-29 06:30:34 51°13.732 2°55.712 0.5 32 10.2 99570 92
2004-10-29 06:30:38 51°13.738 2°55.707 0.8 359 10.2 99570 92
2004-10-29 06:30:44 51°13.747 2°55.698 0.9 359 10.2 99570 92
2004-10-29 06:30:49 51°13.755 2°55.691 1.1 359 10.2 99570 92
2004-10-29 06:30:54 51°13.763 2°55.683 0.9   10.2 99570 92
2004-10-29 06:30:58 51°13.77 2°55.677 1.2 2 10.2 99570 92
2004-10-29 06:31:04 51°13.781 2°55.669 1.2 2 10.2 99570 92
2004-10-29 06:31:08 51°13.789 2°55.663 1.4 1 10.2 99570 92
2004-10-29 06:31:14 51°13.801 2°55.654 1.3 14 10.2 99570 92
2004-10-29 06:31:19 51°13.811 2°55.646 1.5 10 10.2 99570 92
2004-10-29 06:31:24 51°13.821 2°55.638 1.6 5 10.2 99570 92
2004-10-29 06:31:29 51°13.831 2°55.63 1.5 359 10.2 99570 92
2004-10-29 06:31:33 51°13.84 2°55.624 1.8 5 10.2 99580 92
2004-10-29 06:31:36 51°13.847 2°55.619 2.1 9 10.2 99580 92
2004-10-29 06:31:42 51°13.86 2°55.609 2.2 3 10.2 99570 92
2004-10-29 06:31:48 51°13.874 2°55.599 2.2 18 10.2 99570 92
2004-10-29 06:31:52 51°13.883 2°55.593 1.9 18 10.2 99570 92
2004-10-29 06:31:59 51°13.899 2°55.581 1.9 8 10.2 99570 92
2004-10-29 06:32:04 51°13.911 2°55.572 1.7 10 10.2 99570 92
2004-10-29 06:32:08 51°13.921 2°55.565 2 9 10.2 99570 92
2004-10-29 06:32:14 51°13.936 2°55.555 2 16 10.2 99570 92
2004-10-29 06:32:18 51°13.946 2°55.548 2.1 19 10.2 99570 92
2004-10-29 06:32:24 51°13.961 2°55.539 2 21 10.2 99580 92
2004-10-29 06:32:27 51°13.969 2°55.534 1.9 13 10.2 99580 92
2004-10-29 06:32:34 51°13.986 2°55.522 1.9 9 10.2 99580 92
2004-10-29 06:32:38 51°13.996 2°55.515 2.3 7 10.2 99580 92
2004-10-29 06:32:42 51°14.007 2°55.508 2.2 17 10.2 99580 92
2004-10-29 06:32:48 51°14.022 2°55.498 2.2 9 10.2 99580 92
2004-10-29 06:32:52 51°14.032 2°55.491 2.2 16 10.2 99570 92
2004-10-29 06:32:58 51°14.047 2°55.481 1.5 14 10.2 99570 92
2004-10-29 06:33:03 51°14.06 2°55.471 1.9 14 10.2 99580 92
2004-10-29 06:33:08 51°14.073 2°55.462 1.8 9 10.2 99580 92
2004-10-29 06:33:14 51°14.089 2°55.45 1.3 9 10.2 99570 92
2004-10-29 06:33:19 51°14.103 2°55.44 1.8 28 10.2 99570 92
2004-10-29 06:33:22 51°14.11 2°55.433 1.8 28 10.2 99570 92
2004-10-29 06:33:29 51°14.13 2°55.419 1.5 30 10.2 99570 92
2004-10-29 06:33:33 51°14.141 2°55.411 1.7 28 10.2 99570 92
2004-10-29 06:33:39 51°14.158 2°55.397 1.5 13 10.2 99570 92
2004-10-29 06:33:44 51°14.172 2°55.385 1.7 26 10.2 99570 92
2004-10-29 06:33:48 51°14.183 2°55.375 1.4 24 10.2 99570 92
2004-10-29 06:33:54 51°14.199 2°55.358 1.5 1 10.2 99580 92
2004-10-29 06:33:58 51°14.209 2°55.347 1.6 357 10.2 99580 92
2004-10-29 06:34:04 51°14.225 2°55.328 2 354 10.2 99570 93
2004-10-29 06:34:06 51°14.23 2°55.322 2.1 347 10.2 99570 93
2004-10-29 06:34:14 51°14.249 2°55.295 2.9 342 10.2 99580 93
2004-10-29 06:34:18 51°14.258 2°55.281 3.2 341 10.2 99580 93
2004-10-29 06:34:23 51°14.269 2°55.262 3.4 335 10.2 99580 93
2004-10-29 06:34:28 51°14.28 2°55.242 3.7 346 10.2 99580 93
2004-10-29 06:34:33 51°14.29 2°55.223 3 324 10.3 99580 93
2004-10-29 06:34:38 51°14.301 2°55.203 2.4 341 10.3 99580 93
2004-10-29 06:34:42 51°14.31 2°55.187 2.3 337 10.2 99570 93
2004-10-29 06:34:48 51°14.323 2°55.163 3.4 342 10.2 99570 93
2004-10-29 06:34:54 51°14.336 2°55.139 2.8 332 10.3 99570 93
2004-10-29 06:34:59 51°14.347 2°55.12 2.9 344 10.3 99570 93
2004-10-29 06:35:04 51°14.358 2°55.101 2.8 325 10.3 99570 93
2004-10-29 06:35:06 51°14.363 2°55.093 2.8 311 10.3 99570 93
2004-10-29 06:35:14 51°14.382 2°55.064 2.6 43 10.3 99570 93
2004-10-29 06:35:19 51°14.395 2°55.047 2 330 10.3 99570 93
2004-10-29 06:35:24 51°14.408 2°55.031 1.7 323 10.2 99570 93
2004-10-29 06:35:26 51°14.414 2°55.025 2.5 333 10.2 99570 93
2004-10-29 06:35:33 51°14.433 2°55 2.4 316 10.3 99570 93
2004-10-29 06:35:38 51°14.448 2°54.982 2 321 10.3 99570 93
2004-10-29 06:35:42 51°14.459 2°54.967 2 325 10.3 99570 93
2004-10-29 06:35:48 51°14.476 2°54.944 2.7 42 10.3 99570 93
2004-10-29 06:35:54 51°14.492 2°54.919 2.6 229 10.3 99570 93
2004-10-29 06:35:59 51°14.505 2°54.898 2.9 307 10.3 99570 93
2004-10-29 06:36:04 51°14.518 2°54.877 2.4 312 10.2 99570 93
2004-10-29 06:36:09 51°14.531 2°54.857 2.1 308 10.2 99570 93
2004-10-29 06:36:14 51°14.545 2°54.836 2.4 296 10.2 99570 93
2004-10-29 06:36:18 51°14.556 2°54.82 1.9 296 10.2 99570 93
2004-10-29 06:36:23 51°14.57 2°54.8 1.5 286 10.3 99570 93
2004-10-29 06:36:27 51°14.581 2°54.784 1.1 283 10.3 99570 93
2004-10-29 06:36:34 51°14.601 2°54.756 2.5 301 10.2 99570 93
2004-10-29 06:36:38 51°14.613 2°54.74 2.9 288 10.2 99570 93
2004-10-29 06:36:44 51°14.629 2°54.715 2.8 269 10.2 99570 93
2004-10-29 06:36:48 51°14.64 2°54.699 1.6 273 10.2 99570 93
2004-10-29 06:36:54 51°14.657 2°54.675 1.1 260 10.3 99570 93
2004-10-29 06:36:58 51°14.668 2°54.659 1.2 252 10.3 99570 93
2004-10-29 06:37:04 51°14.686 2°54.637 1.1 278 10.3 99570 93
2004-10-29 06:37:08 51°14.698 2°54.622 1 277 10.3 99570 93
2004-10-29 06:37:14 51°14.716 2°54.601 1.1 281 10.3 99570 93
2004-10-29 06:37:18 51°14.728 2°54.587 1.6 228 10.3 99570 93
2004-10-29 06:37:23 51°14.744 2°54.571 1.1 313 10.3 99570 93
2004-10-29 06:37:29 51°14.763 2°54.552 0.7 317 10.3 99570 93
2004-10-29 06:37:34 51°14.78 2°54.538 0.5 317 10.3 99570 93
2004-10-29 06:37:38 51°14.793 2°54.527 0.3 316 10.3 99570 93
2004-10-29 06:37:44 51°14.812 2°54.51 0.1 317 10.3 99570 93
2004-10-29 06:37:47 51°14.822 2°54.502 1 355 10.3 99570 93
2004-10-29 06:37:54 51°14.845 2°54.483 1.3 347 10.3 99570 93
2004-10-29 06:37:58 51°14.858 2°54.471 0.9 336 10.3 99570 93
2004-10-29 06:38:04 51°14.877 2°54.454 1.2 334 10.3 99570 93
2004-10-29 06:38:08 51°14.89 2°54.442 1.3 228 10.3 99570 93
2004-10-29 06:38:14 51°14.909 2°54.423 1.4 291 10.3 99570 93
2004-10-29 06:38:19 51°14.924 2°54.407 3.5 274 10.3 99570 93
2004-10-29 06:38:23 51°14.936 2°54.394 1.7 274 10.3 99570 93
2004-10-29 06:38:27 51°14.948 2°54.382 1.1 253 10.3 99570 93
2004-10-29 06:38:36 51°14.975 2°54.353 1.7 273 10.3 99570 93
2004-10-29 06:38:39 51°14.984 2°54.345 1.2 237 10.3 99570 93
2004-10-29 06:38:46 51°15.006 2°54.325 1 220 10.3 99570 93
2004-10-29 06:38:51 51°15.022 2°54.313 0.7 211 10.3 99570 93
2004-10-29 06:38:55 51°15.034 2°54.304 0.6 215 10.3 99570 93
2004-10-29 06:39:04 51°15.064 2°54.284 0.4 214 10.3 99570 93
2004-10-29 06:39:10 51°15.083 2°54.272 0.5 203 10.3 99570 93
2004-10-29 06:39:14 51°15.096 2°54.263 0.3 204 10.3 99570 93
2004-10-29 06:39:19 51°15.112 2°54.251 0.2 204 10.3 99570 93
2004-10-29 06:39:25 51°15.131 2°54.236 0.1 204 10.4 99570 93
2004-10-29 06:39:30 51°15.146 2°54.221 0.8 270 10.4 99570 93
2004-10-29 06:39:34 51°15.158 2°54.207 1.4 286 10.4 99570 93
2004-10-29 06:39:40 51°15.175 2°54.186 1.5 274 10.4 99570 93
2004-10-29 06:39:45 51°15.189 2°54.167 1.5 283 10.4 99570 93
2004-10-29 06:39:50 51°15.203 2°54.147 2.7 264 10.4 99570 93
2004-10-29 06:39:55 51°15.216 2°54.127 3 264 10.4 99570 93
2004-10-29 06:39:58 51°15.224 2°54.115 3 248 10.4 99570 93
2004-10-29 06:40:05 51°15.243 2°54.087 2.7 246 10.4 99570 93
2004-10-29 06:40:10 51°15.257 2°54.069 1.7 234 10.4 99570 93
2004-10-29 06:40:14 51°15.269 2°54.055 1.9 205 10.4 99570 93
2004-10-29 06:40:20 51°15.288 2°54.035 1.1 205 10.4 99570 93
2004-10-29 06:40:24 51°15.301 2°54.023 0.6 203 10.4 99570 93
2004-10-29 06:40:30 51°15.32 2°54.007 0.8 158 10.4 99570 93
2004-10-29 06:40:35 51°15.337 2°53.994 0.9 135 10.5 99570 93
2004-10-29 06:40:38 51°15.347 2°53.986 0.9 179 10.5 99570 93
2004-10-29 06:40:44 51°15.367 2°53.971 0.9 190 10.5 99570 93
2004-10-29 06:40:50 51°15.387 2°53.955 0.7 179 10.5 99570 93
2004-10-29 06:40:59 51°15.416 2°53.929 1.6 302 10.5 99570 93
2004-10-29 06:41:04 51°15.432 2°53.914 2.1 277 10.5 99570 93
2004-10-29 06:41:10 51°15.452 2°53.895 2.4 263 10.5 99570 93
2004-10-29 06:41:14 51°15.464 2°53.881 1.7 256 10.5 99560 94
2004-10-29 06:41:20 51°15.483 2°53.861 2.6 278 10.5 99560 94
2004-10-29 06:41:24 51°15.496 2°53.848 2.2 281 10.5 99570 94
2004-10-29 06:41:30 51°15.515 2°53.828 1.4 256 10.5 99570 94
2004-10-29 06:41:35 51°15.531 2°53.811 1.2 249 10.6 99570 94
2004-10-29 06:41:38 51°15.541 2°53.802 1.2 248 10.6 99570 94
2004-10-29 06:41:44 51°15.56 2°53.782 0.7 263 10.6 99570 94
2004-10-29 06:41:50 51°15.58 2°53.763 1.4 301 10.6 99570 94
2004-10-29 06:41:54 51°15.593 2°53.751 1.6 285 10.6 99570 94
2004-10-29 06:42:00 51°15.613 2°53.732 1.5 281 10.6 99570 94
2004-10-29 06:42:03 51°15.623 2°53.722 1.2 270 10.6 99570 94
2004-10-29 06:42:10 51°15.646 2°53.7 1.7 267 10.6 99570 94
2004-10-29 06:42:14 51°15.659 2°53.687 1.7 265 10.6 99570 94
2004-10-29 06:42:19 51°15.676 2°53.672 2.3 275 10.6 99570 94
2004-10-29 06:42:24 51°15.692 2°53.655 2 278 10.7 99570 94
2004-10-29 06:42:30 51°15.712 2°53.636 1.5 269 10.7 99570 94
2004-10-29 06:42:34 51°15.725 2°53.623 2.2 245 10.7 99570 94
2004-10-29 06:42:40 51°15.745 2°53.603 2.4 249 10.7 99570 94
2004-10-29 06:42:44 51°15.758 2°53.59 1.8 250 10.7 99570 94
2004-10-29 06:42:50 51°15.778 2°53.571 1.6 253 10.7 99570 94
2004-10-29 06:42:54 51°15.791 2°53.558 1.7 248 10.7 99570 94
2004-10-29 06:43:00 51°15.811 2°53.538 2.2 267 10.7 99570 94
2004-10-29 06:43:04 51°15.824 2°53.525 1.7 248 10.7 99570 94
2004-10-29 06:43:10 51°15.844 2°53.506 2.1 235 10.7 99570 94
2004-10-29 06:43:12 51°15.851 2°53.5 1.7 237 10.7 99570 94
2004-10-29 06:43:19 51°15.874 2°53.478 1.4 230 10.7 99570 94
2004-10-29 06:43:24 51°15.891 2°53.463 1.4 232 10.8 99570 94
2004-10-29 06:43:30 51°15.911 2°53.446 0.8 240 10.8 99570 94
2004-10-29 06:43:35 51°15.928 2°53.432 0.6 241 10.8 99570 94
2004-10-29 06:43:40 51°15.945 2°53.419 0.4 252 10.8 99570 94
2004-10-29 06:43:44 51°15.959 2°53.408 0.2 247 10.8 99570 94
2004-10-29 06:43:50 51°15.98 2°53.393 0.3 224 10.8 99570 94
2004-10-29 06:43:54 51°15.993 2°53.382 1 231 10.8 99570 94
2004-10-29 06:44:00 51°16.014 2°53.366 1.3 248 10.8 99570 94
2004-10-29 06:44:03 51°16.024 2°53.358 1.6 248 10.8 99570 93
2004-10-29 06:44:10 51°16.048 2°53.338 2.3 238 10.8 99570 93
2004-10-29 06:44:14 51°16.062 2°53.327 1.7 249 10.8 99570 93
2004-10-29 06:44:20 51°16.082 2°53.31 1.4 250 10.8 99570 93
2004-10-29 06:44:24 51°16.096 2°53.299 1.8 247 10.8 99570 93
2004-10-29 06:44:30 51°16.117 2°53.283 2 235 10.8 99570 93
2004-10-29 06:44:35 51°16.134 2°53.271 2 219 10.8 99570 93
2004-10-29 06:44:40 51°16.151 2°53.258 1.5 221 10.8 99570 93
2004-10-29 06:44:44 51°16.165 2°53.247 1.5 226 10.8 99570 93
2004-10-29 06:44:50 51°16.185 2°53.232 1.5 230 10.8 99570 93
2004-10-29 06:44:54 51°16.199 2°53.221 1.8 228 10.8 99570 94
2004-10-29 06:44:59 51°16.216 2°53.207 1.1 225 10.8 99570 94
2004-10-29 06:45:04 51°16.233 2°53.193 1 229 10.9 99570 94
2004-10-29 06:45:10 51°16.253 2°53.177 1.5 230 10.9 99570 94
2004-10-29 06:45:15 51°16.27 2°53.163 1.1 227 10.9 99570 94
2004-10-29 06:45:18 51°16.28 2°53.155 1.2 228 10.9 99570 94
2004-10-29 06:45:23 51°16.297 2°53.141 1 228 10.9 99570 94
2004-10-29 06:45:30 51°16.32 2°53.122 0.7 238 10.9 99570 94
2004-10-29 06:45:35 51°16.338 2°53.109 0.9 237 10.9 99570 93
2004-10-29 06:45:38 51°16.348 2°53.1 1.1 230 10.9 99570 93
2004-10-29 06:45:44 51°16.368 2°53.084 1 219 10.9 99570 93
2004-10-29 06:45:50 51°16.389 2°53.068 0.8 218 10.9 99570 93
2004-10-29 06:45:54 51°16.402 2°53.057 1.1 237 10.9 99560 93
2004-10-29 06:46:00 51°16.422 2°53.041 1.2 245 10.9 99560 93
2004-10-29 06:46:04 51°16.436 2°53.031 1 245 10.9 99570 93
2004-10-29 06:46:10 51°16.456 2°53.014 0.8 248 10.9 99570 93
2004-10-29 06:46:15 51°16.473 2°53.001 1 254 10.9 99570 93
2004-10-29 06:46:20 51°16.49 2°52.988 1.6 243 10.9 99570 93
2004-10-29 06:46:24 51°16.504 2°52.977 1.5 253 10.9 99570 93
2004-10-29 06:46:30 51°16.524 2°52.961 1.3 235 10.9 99570 93
2004-10-29 06:46:35 51°16.541 2°52.947 1.7 232 10.9 99570 93
2004-10-29 06:46:40 51°16.558 2°52.934 1.6 225 10.9 99570 93
2004-10-29 06:46:42 51°16.565 2°52.929 1.8 231 10.9 99570 93
2004-10-29 06:46:50 51°16.592 2°52.907 1.7 218 10.9 99570 93
2004-10-29 06:46:55 51°16.608 2°52.894 1.6 218 11 99570 93
2004-10-29 06:46:58 51°16.618 2°52.886 1.5 219 11 99570 93
2004-10-29 06:47:04 51°16.639 2°52.87 1.4 218 11 99570 93
2004-10-29 06:47:10 51°16.659 2°52.854 2 232 11 99570 93
2004-10-29 06:47:15 51°16.676 2°52.841 1.6 225 11 99570 93
2004-10-29 06:47:19 51°16.689 2°52.831 1.4 212 11 99570 93
2004-10-29 06:47:25 51°16.71 2°52.816 2.1 210 11 99570 93
2004-10-29 06:47:30 51°16.726 2°52.803 2.1 235 11 99570 93
2004-10-29 06:47:34 51°16.74 2°52.794 2.5 231 10.9 99570 93
2004-10-29 06:47:46 51°16.78 2°52.765 1.9   10.9 99570 93
2004-10-29 06:47:52 51°16.8 2°52.751 2.3 213 11 99570 93
2004-10-29 06:47:58 51°16.819 2°52.736 2.3 214 11 99570 93
2004-10-29 06:48:02 51°16.832 2°52.726 3.5 211 11 99570 93
2004-10-29 06:48:08 51°16.851 2°52.711 2.9 214 11 99570 93
2004-10-29 06:48:12 51°16.864 2°52.701 2.5 217 10.9 99570 93
2004-10-29 06:48:18 51°16.884 2°52.685 2.9 205 10.9 99570 93
2004-10-29 06:48:22 51°16.897 2°52.674 2.2 216 11 99570 93
2004-10-29 06:48:27 51°16.913 2°52.661 1.9 218 11 99570 93
2004-10-29 06:48:32 51°16.929 2°52.648 1.7 212 11 99570 93
2004-10-29 06:48:38 51°16.948 2°52.632 2.1 217 11 99570 93
2004-10-29 06:48:43 51°16.965 2°52.619 2.4 220 11 99570 93
2004-10-29 06:48:46 51°16.975 2°52.611 1.7   11 99570 93
2004-10-29 06:48:50 51°16.988 2°52.601 1.8 220 11 99570 93
2004-10-29 06:49:02 51°17.029 2°52.571 1.1 218 11 99570 93
2004-10-29 06:49:06 51°17.042 2°52.561 2.8 215 11 99570 93
2004-10-29 06:49:12 51°17.062 2°52.547 3 215 11 99570 93
2004-10-29 06:49:16 51°17.075 2°52.537 2.8 227 11 99570 93
2004-10-29 06:49:22 51°17.095 2°52.522 3 203 11 99570 93
2004-10-29 06:49:26 51°17.108 2°52.512 2.6 220 11 99570 93
2004-10-29 06:49:31 51°17.125 2°52.499 2.3 215 11 99570 93
2004-10-29 06:49:36 51°17.141 2°52.485 2.3 212 11 99570 93
2004-10-29 06:49:42 51°17.161 2°52.469 2.2 215 11 99570 93
2004-10-29 06:49:44 51°17.168 2°52.464 1.7 221 11 99570 93
2004-10-29 06:49:52 51°17.194 2°52.442 1.5 234 11 99570 93
2004-10-29 06:49:56 51°17.207 2°52.431 1 224 11 99570 93
2004-10-29 06:50:02 51°17.227 2°52.416 1.1 230 11 99570 93
2004-10-29 06:50:06 51°17.24 2°52.405 0.9 239 11 99570 93
2004-10-29 06:50:12 51°17.261 2°52.39 0.9 241 11 99570 93
2004-10-29 06:50:14 51°17.268 2°52.385 2.6 213 11 99570 93
2004-10-29 06:50:22 51°17.295 2°52.365 2.1 220 11 99570 93
2004-10-29 06:50:27 51°17.312 2°52.352 3 216 11.1 99570 93
2004-10-29 06:50:32 51°17.329 2°52.339 2.5 216 11.1 99570 93
2004-10-29 06:50:36 51°17.342 2°52.328 1.9 213 11 99560 93
2004-10-29 06:50:41 51°17.359 2°52.315 2 221 11 99560 93
2004-10-29 06:50:46 51°17.376 2°52.302 2.2 224 11.1 99570 93
2004-10-29 06:50:51 51°17.393 2°52.289 1.6 218 11.1 99570 93
2004-10-29 06:51:02 51°17.43 2°52.261 3 220 11.1 99570 93
2004-10-29 06:51:10 51°17.457 2°52.241 1.8 181 11.1 99570 93
2004-10-29 06:51:15 51°17.474 2°52.229 1.3 177 11.1 99560 93
2004-10-29 06:51:20 51°17.491 2°52.216 1.9 167 11.1 99560 93
2004-10-29 06:51:24 51°17.505 2°52.206 1.7 168 11.1 99560 93
2004-10-29 06:51:30 51°17.525 2°52.192 1.5 208 11.1 99560 93
2004-10-29 06:51:34 51°17.538 2°52.182 1.7 241 11.1 99570 93
2004-10-29 06:51:39 51°17.556 2°52.169 1.6 217 11.1 99570 93
2004-10-29 06:51:44 51°17.572 2°52.156 2.1 214 11.2 99570 93
2004-10-29 06:51:49 51°17.589 2°52.143 1.8 219 11.2 99570 93
2004-10-29 06:51:54 51°17.606 2°52.13 1.3 234 11.2 99570 93
2004-10-29 06:52:00 51°17.626 2°52.114 1.5 227 11.2 99570 93
2004-10-29 06:52:03 51°17.636 2°52.107 1.8 222 11.2 99570 93
2004-10-29 06:52:16 51°17.68 2°52.074 1 194 11.2 99570 93
2004-10-29 06:52:22 51°17.7 2°52.059 2.5 164 11.2 99570 93
2004-10-29 06:52:27 51°17.717 2°52.046 2.5 172 11.2 99560 93
2004-10-29 06:52:32 51°17.734 2°52.034 1.7 187 11.2 99560 93
2004-10-29 06:52:36 51°17.747 2°52.023 1.9 224 11.2 99570 93
2004-10-29 06:52:42 51°17.767 2°52.008 2.6 211 11.2 99570 93
2004-10-29 06:52:47 51°17.784 2°51.995 3.2 205 11.2 99570 93
2004-10-29 06:52:51 51°17.797 2°51.985 2 164 11.2 99570 93
2004-10-29 06:52:56 51°17.814 2°51.972 2.1 194 11.2 99560 93
2004-10-29 06:53:02 51°17.834 2°51.957 1.3 195 11.2 99560 93
2004-10-29 06:53:06 51°17.848 2°51.947 2 169 11.2 99570 92
2004-10-29 06:53:11 51°17.865 2°51.934 1.8 172 11.2 99570 92
2004-10-29 06:53:15 51°17.878 2°51.924 1.1 178 11.2 99570 92
2004-10-29 06:53:22 51°17.902 2°51.907 1.1 185 11.2 99570 92
2004-10-29 06:53:26 51°17.915 2°51.897 1.2 203 11.2 99570 92
2004-10-29 06:53:32 51°17.936 2°51.881 1 203 11.2 99570 92
2004-10-29 06:53:34 51°17.942 2°51.876 1 207 11.2 99570 92
2004-10-29 06:53:43 51°17.973 2°51.852 0.9 217 11.2 99570 92
2004-10-29 06:53:48 51°17.989 2°51.839 0.7 210 11.2 99570 92
2004-10-29 06:53:54 51°18.01 2°51.823 1.2 224 11.2 99570 92
2004-10-29 06:53:58 51°18.023 2°51.812 1 230 11.2 99570 92
2004-10-29 06:54:03 51°18.04 2°51.799 1.1 188 11.3 99570 92
2004-10-29 06:54:08 51°18.057 2°51.786 1.7 172 11.3 99570 92
2004-10-29 06:54:11 51°18.067 2°51.778 1.2 167 11.3 99570 92
2004-10-29 06:54:24 51°18.111 2°51.744 1.2 179 11.3 99570 92
2004-10-29 06:54:30 51°18.132 2°51.728 0.5 180 11.3 99570 92
2004-10-29 06:54:35 51°18.149 2°51.715 0.5 180 11.3 99560 92
2004-10-29 06:54:40 51°18.166 2°51.701 0.5 161 11.3 99560 92
2004-10-29 06:54:44 51°18.18 2°51.691 0.5 231 11.3 99570 92
2004-10-29 06:54:50 51°18.201 2°51.675 0.7 205 11.3 99570 92
2004-10-29 06:54:54 51°18.215 2°51.664 0.8 193 11.3 99570 92
2004-10-29 06:55:00 51°18.235 2°51.648 1.3 177 11.3 99570 92
2004-10-29 06:55:04 51°18.249 2°51.638 1.4 175 11.3 99570 92
2004-10-29 06:55:10 51°18.27 2°51.622 1.5 169 11.3 99570 92
2004-10-29 06:55:15 51°18.287 2°51.609 2.1 182 11.3 99570 92
2004-10-29 06:55:20 51°18.304 2°51.596 2 181 11.3 99570 92
2004-10-29 06:55:24 51°18.318 2°51.585 1.7 182 11.3 99570 92
2004-10-29 06:55:30 51°18.338 2°51.569 1.4 201 11.3 99570 92
2004-10-29 06:55:34 51°18.352 2°51.558 1 178 11.4 99570 92
2004-10-29 06:55:39 51°18.369 2°51.545 1.1 205 11.4 99570 92
2004-10-29 06:55:52 51°18.413 2°51.51 1.9 201 11.4 99560 92
2004-10-29 06:55:54 51°18.42 2°51.504 2.3 203 11.4 99560 92
2004-10-29 06:56:03 51°18.451 2°51.48 2.6 203 11.4 99560 92
2004-10-29 06:56:07 51°18.464 2°51.469 2.3 195 11.4 99560 92
2004-10-29 06:56:12 51°18.481 2°51.455 2 209 11.4 99570 92
2004-10-29 06:56:18 51°18.502 2°51.439 1.9 221 11.4 99570 92
2004-10-29 06:56:23 51°18.519 2°51.425 2.1 228 11.4 99570 92
2004-10-29 06:56:28 51°18.536 2°51.412 1.4 217 11.4 99570 92
2004-10-29 06:56:30 51°18.542 2°51.407 1.4 207 11.4 99570 92
2004-10-29 06:56:36 51°18.563 2°51.39 1.4 236 11.4 99570 92
2004-10-29 06:56:42 51°18.583 2°51.374 1.9 230 11.4 99570 92
2004-10-29 06:56:48 51°18.603 2°51.358 2   11.4 99570 92
2004-10-29 06:56:50 51°18.61 2°51.353 1.7 233 11.5 99560 92
2004-10-29 06:56:58 51°18.638 2°51.332 1.9 228 11.5 99560 92
2004-10-29 06:57:02 51°18.651 2°51.321 2.2 213 11.5 99560 92
2004-10-29 06:57:06 51°18.665 2°51.31 2.1 216 11.5 99560 92
2004-10-29 06:57:12 51°18.685 2°51.294 2.5 206 11.5 99570 92
2004-10-29 06:57:18 51°18.705 2°51.278 2.5 216 11.5 99570 92
2004-10-29 06:57:22 51°18.719 2°51.267 2.6 217 11.5 99560 91
2004-10-29 06:57:28 51°18.739 2°51.251 2.2 209 11.5 99560 91
2004-10-29 06:57:39 51°18.776 2°51.222 1.5 231 11.5 99560 91
2004-10-29 06:57:46 51°18.8 2°51.203 1.2 229 11.5 99570 91
2004-10-29 06:57:50 51°18.813 2°51.192 1.6 216 11.5 99570 91
2004-10-29 06:57:56 51°18.834 2°51.176 1.4 243 11.5 99570 91
2004-10-29 06:57:58 51°18.84 2°51.171 1.3 241 11.5 99570 91
2004-10-29 06:58:06 51°18.867 2°51.149 1.5 232 11.5 99570 91
2004-10-29 06:58:10 51°18.881 2°51.138 1.4 210 11.5 99570 91
2004-10-29 06:58:16 51°18.901 2°51.122 1.2 213 11.5 99560 91
2004-10-29 06:58:20 51°18.914 2°51.111 1 222 11.5 99560 91
2004-10-29 06:58:24 51°18.928 2°51.1 1.6 215 11.5 99570 91
2004-10-29 06:58:31 51°18.951 2°51.081 1.1 238 11.5 99570 91
2004-10-29 06:58:36 51°18.968 2°51.068 1.1 186 11.5 99570 91
2004-10-29 06:58:40 51°18.982 2°51.057 1.1 156 11.5 99570 91
2004-10-29 06:58:46 51°19.002 2°51.041 2.1 153 11.5 99560 91
2004-10-29 06:58:50 51°19.016 2°51.03 2.1 162 11.5 99560 91
2004-10-29 06:58:56 51°19.036 2°51.014 1.3 221 11.5 99560 91
2004-10-29 06:59:00 51°19.049 2°51.003 1.9 173 11.5 99560 91
2004-10-29 06:59:06 51°19.069 2°50.987 2.1 218 11.6 99570 91
2004-10-29 06:59:10 51°19.083 2°50.976 2.1 223 11.6 99570 91
2004-10-29 06:59:16 51°19.103 2°50.96 2.4 173 11.5 99570 91
2004-10-29 06:59:21 51°19.12 2°50.946 2.7 165 11.5 99570 91
2004-10-29 06:59:26 51°19.137 2°50.932 2.3 157 11.5 99570 91
2004-10-29 06:59:28 51°19.143 2°50.927 2.1 219 11.5 99570 91
2004-10-29 06:59:38 51°19.177 2°50.9 2.4 223 11.6 99570 91
2004-10-29 06:59:48 51°19.211 2°50.873 1.6 205 11.5 99570 91
2004-10-29 06:59:54 51°19.231 2°50.856 1.7 200 11.5 99570 90
2004-10-29 06:59:59 51°19.248 2°50.843 1.8 222 11.5 99570 90
2004-10-29 07:00:10 51°19.285 2°50.814 1.9 220 11.5 99570 90
2004-10-29 07:00:16 51°19.306 2°50.798 2.6 224 11.5 99570 90
2004-10-29 07:00:22 51°19.326 2°50.781 2.7 222 11.5 99570 90
2004-10-29 07:00:27 51°19.343 2°50.767 1.5 235 11.5 99570 90
2004-10-29 07:00:30 51°19.353 2°50.759 1.6 226 11.5 99570 90
2004-10-29 07:00:36 51°19.373 2°50.743 1.2 208 11.5 99570 90
2004-10-29 07:00:40 51°19.386 2°50.732 1.4 213 11.5 99570 90
2004-10-29 07:00:47 51°19.41 2°50.714 1.5 210 11.5 99570 90
2004-10-29 07:00:50 51°19.42 2°50.706 1.7 220 11.6 99570 90
2004-10-29 07:00:58 51°19.447 2°50.685 1.5 230 11.6 99570 90
2004-10-29 07:01:02 51°19.461 2°50.674 1.5 248 11.6 99570 90
2004-10-29 07:01:07 51°19.477 2°50.661 2 229 11.6 99570 90
2004-10-29 07:01:10 51°19.487 2°50.653 1.7 210 11.5 99580 90
2004-10-29 07:01:15 51°19.504 2°50.64 1.4 205 11.5 99580 90
2004-10-29 07:01:22 51°19.528 2°50.621 1.2 211 11.5 99580 90
2004-10-29 07:01:26 51°19.542 2°50.611 1.5 214 11.5 99570 90
2004-10-29 07:01:31 51°19.559 2°50.598 1.2 179 11.5 99580 90
2004-10-29 07:01:36 51°19.576 2°50.585 1.1 165 11.5 99580 90
2004-10-29 07:01:42 51°19.596 2°50.569 0.8 165 11.6 99570 90
2004-10-29 07:01:46 51°19.609 2°50.558 1.2 143 11.6 99570 90
2004-10-29 07:01:51 51°19.626 2°50.545 0.9 165 11.6 99580 90
2004-10-29 07:01:56 51°19.643 2°50.531 0.7 177 11.6 99580 90
2004-10-29 07:02:02 51°19.663 2°50.515 1.2 189 11.6 99580 90
2004-10-29 07:02:07 51°19.68 2°50.501 1 193 11.6 99580 90
2004-10-29 07:02:11 51°19.694 2°50.491 0.6 200 11.6 99570 90
2004-10-29 07:02:15 51°19.708 2°50.48 0.6 223 11.6 99570 90
2004-10-29 07:02:28 51°19.753 2°50.444 1.3 231 11.6 99570 90
2004-10-29 07:02:32 51°19.766 2°50.433 1 197 11.6 99580 90
2004-10-29 07:02:38 51°19.787 2°50.417 0.6 185 11.6 99580 90
2004-10-29 07:02:43 51°19.804 2°50.404 1.1 214 11.6 99570 90
2004-10-29 07:02:47 51°19.818 2°50.393 1.2 223 11.6 99570 90
2004-10-29 07:02:51 51°19.832 2°50.382 1 239 11.6 99570 90
2004-10-29 07:02:58 51°19.856 2°50.363 0.5 249 11.6 99570 90
2004-10-29 07:03:02 51°19.87 2°50.352 0.5 272 11.6 99580 90
2004-10-29 07:03:07 51°19.887 2°50.338 0.4 278 11.6 99580 90
2004-10-29 07:03:12 51°19.904 2°50.325 0.3 281 11.6 99580 89
2004-10-29 07:03:18 51°19.925 2°50.308 0.1 275 11.6 99580 89
2004-10-29 07:03:23 51°19.942 2°50.295 0.5 280 11.7 99580 89
2004-10-29 07:03:28 51°19.959 2°50.281 0.7 311 11.7 99580 89
2004-10-29 07:03:33 51°19.976 2°50.268 1.3 241 11.7 99580 89
2004-10-29 07:03:38 51°19.994 2°50.254 1.6 239 11.7 99580 89
2004-10-29 07:03:43 51°20.011 2°50.241 1.5 232 11.7 99580 89
2004-10-29 07:03:48 51°20.028 2°50.227 3.3 224 11.7 99580 89
2004-10-29 07:03:58 51°20.062 2°50.2 2 216 11.7 99580 89
2004-10-29 07:04:02 51°20.076 2°50.189 1.9 214 11.7 99580 89
2004-10-29 07:04:06 51°20.089 2°50.179 1.8 240 11.7 99580 89
2004-10-29 07:04:12 51°20.11 2°50.163 1.7 242 11.7 99570 89
2004-10-29 07:04:18 51°20.131 2°50.147 2.1 233 11.7 99570 89
2004-10-29 07:04:23 51°20.148 2°50.133 1.5 227 11.7 99580 89
2004-10-29 07:04:28 51°20.165 2°50.12 1.9 232 11.7 99580 89
2004-10-29 07:04:32 51°20.179 2°50.109 1.6 229 11.7 99580 89
2004-10-29 07:04:38 51°20.199 2°50.093 1.5 224 11.7 99580 89
2004-10-29 07:04:43 51°20.217 2°50.079 1.5 236 11.7 99570 89
2004-10-29 07:04:48 51°20.233 2°50.065 1.3 237 11.7 99570 89
2004-10-29 07:04:52 51°20.247 2°50.054 1.1 230 11.7 99580 89
2004-10-29 07:04:58 51°20.268 2°50.038 0.7 194 11.7 99580 89
2004-10-29 07:05:03 51°20.285 2°50.024 1.3 215 11.7 99570 89
2004-10-29 07:05:08 51°20.302 2°50.011 1.4 197 11.7 99570 89
2004-10-29 07:05:10 51°20.309 2°50.005 1.2 185 11.7 99570 89
2004-10-29 07:05:18 51°20.336 2°49.983 1.7 176 11.7 99570 89
2004-10-29 07:05:23 51°20.353 2°49.969 1.6 148 11.7 99570 89
2004-10-29 07:05:27 51°20.367 2°49.959 1.2 147 11.7 99570 89
2004-10-29 07:05:33 51°20.387 2°49.942 1 141 11.7 99580 89
2004-10-29 07:05:38 51°20.404 2°49.929 0.9 164 11.7 99580 89
2004-10-29 07:05:42 51°20.418 2°49.918 0.7 172 11.7 99580 89
2004-10-29 07:05:47 51°20.435 2°49.905 0.6 178 11.7 99580 89
2004-10-29 07:05:52 51°20.452 2°49.891 0.4 178 11.7 99570 89
2004-10-29 07:05:58 51°20.472 2°49.875 0.8 182 11.7 99570 89
2004-10-29 07:06:02 51°20.486 2°49.864 0.6 186 11.7 99580 89
2004-10-29 07:06:08 51°20.506 2°49.847 0.6 182 11.7 99580 89
2004-10-29 07:06:12 51°20.52 2°49.837 0.6 148 11.7 99580 89
2004-10-29 07:06:16 51°20.533 2°49.826 0.4 162 11.7 99580 89
2004-10-29 07:06:20 51°20.547 2°49.815 0.3 156 11.7 99570 89
2004-10-29 07:06:32 51°20.587 2°49.782 0.7 153 11.8 99580 89
2004-10-29 07:06:38 51°20.608 2°49.766 1.2 156 11.8 99580 89
2004-10-29 07:06:42 51°20.622 2°49.755 1.6 168 11.8 99580 89
2004-10-29 07:06:48 51°20.642 2°49.739 1.2 164 11.8 99580 89
2004-10-29 07:06:53 51°20.659 2°49.725 0.9 222 11.8 99570 89
2004-10-29 07:06:58 51°20.676 2°49.711 0.6 242 11.8 99570 89
2004-10-29 07:07:03 51°20.693 2°49.698 0.6 246 11.8 99580 89
2004-10-29 07:07:08 51°20.71 2°49.684 0.8 231 11.8 99580 89
2004-10-29 07:07:11 51°20.72 2°49.676 0.8 247 11.8 99570 89
2004-10-29 07:07:18 51°20.744 2°49.657 1.5 259 11.8 99570 89
2004-10-29 07:07:23 51°20.761 2°49.643 1.3 251 11.8 99580 89
2004-10-29 07:07:26 51°20.771 2°49.635 1.8 233 11.8 99580 89
2004-10-29 07:07:32 51°20.791 2°49.618 2.1 213 11.8 99580 89
2004-10-29 07:07:38 51°20.812 2°49.601 2.6 224 11.8 99580 89
2004-10-29 07:07:43 51°20.829 2°49.588 2.1 212 11.8 99580 89
2004-10-29 07:07:56 51°20.873 2°49.553 2 226 11.8 99580 89
2004-10-29 07:08:02 51°20.893 2°49.536 1.8 228 11.8 99580 89
2004-10-29 07:08:03 51°20.896 2°49.533 1.6 235 11.8 99580 89
2004-10-29 07:08:12 51°20.927 2°49.508 1.1 234 11.8 99580 89
2004-10-29 07:08:16 51°20.94 2°49.497 1.8 235 11.8 99580 89
2004-10-29 07:08:22 51°20.96 2°49.48 1.5 225 11.8 99580 88
2004-10-29 07:08:26 51°20.973 2°49.469 1.4 201 11.8 99580 88
2004-10-29 07:08:31 51°20.99 2°49.455 0.8 200 11.8 99580 88
2004-10-29 07:08:35 51°21.004 2°49.444 1 196 11.8 99580 88
2004-10-29 07:08:42 51°21.027 2°49.425 1.1 219 11.8 99580 88
2004-10-29 07:08:46 51°21.04 2°49.414 1.5   11.8 99580 88
2004-10-29 07:08:52 51°21.06 2°49.397 1.4 169 11.9 99580 88
2004-10-29 07:08:57 51°21.077 2°49.382 1.2 204 11.9 99580 88
2004-10-29 07:09:02 51°21.094 2°49.368 1.9 194 11.9 99580 88
2004-10-29 07:09:06 51°21.107 2°49.357 0.8 175 11.9 99580 88
2004-10-29 07:09:12 51°21.127 2°49.341 0.9 173 11.9 99580 88
2004-10-29 07:09:15 51°21.137 2°49.332 1.3 169 11.9 99580 88
2004-10-29 07:09:22 51°21.161 2°49.314 1.6 166 11.9 99580 88
2004-10-29 07:09:26 51°21.175 2°49.303 1.9 172 11.9 99580 88
2004-10-29 07:09:32 51°21.195 2°49.287 1.9 171 11.8 99580 88
2004-10-29 07:09:35 51°21.205 2°49.279 1.5 166 11.8 99580 88
2004-10-29 07:09:41 51°21.225 2°49.263 1.7 182 11.8 99580 88
2004-10-29 07:09:52 51°21.262 2°49.233 0.6 185 11.8 99580 88
2004-10-29 07:09:58 51°21.282 2°49.216 0.4 183 11.8 99580 88
2004-10-29 07:10:02 51°21.296 2°49.205 0.3 189 11.8 99580 88
2004-10-29 07:10:08 51°21.316 2°49.188 0.3 194 11.8 99580 88
2004-10-29 07:10:10 51°21.322 2°49.183 0.5 204 11.9 99570 88
2004-10-29 07:10:18 51°21.349 2°49.161 0.6 239 11.9 99570 88
2004-10-29 07:10:22 51°21.363 2°49.15 0.4 227 11.9 99580 88
2004-10-29 07:10:28 51°21.383 2°49.133 0.2 177 11.9 99580 88
2004-10-29 07:10:33 51°21.4 2°49.119 0.9 162 11.9 99580 88
2004-10-29 07:10:34 51°21.404 2°49.117 0.6 235 11.9 99580 88
2004-10-29 07:10:43 51°21.434 2°49.092 0.6 244 11.9 99580 88
2004-10-29 07:10:56 51°21.479 2°49.057 0.6 136 11.9 99580 88
2004-10-29 07:11:02 51°21.499 2°49.041 0.6 135 11.9 99580 88
2004-10-29 07:11:06 51°21.513 2°49.03 0.6 152 11.9 99580 88
2004-10-29 07:11:11 51°21.53 2°49.016 0.5 160 11.9 99580 88
2004-10-29 07:11:16 51°21.547 2°49.003 1 221 11.9 99580 88
2004-10-29 07:11:22 51°21.567 2°48.986 1.4 219 11.9 99580 88
2004-10-29 07:11:27 51°21.584 2°48.973 2 212 11.9 99580 88
2004-10-29 07:11:32 51°21.601 2°48.959 2.4 205 11.9 99580 88
2004-10-29 07:11:37 51°21.618 2°48.945 1.5 194 11.9 99580 88
2004-10-29 07:11:42 51°21.635 2°48.932 1.1 192 11.9 99580 88
2004-10-29 07:11:48 51°21.655 2°48.915 1.8 207 11.9 99580 88
2004-10-29 07:11:51 51°21.666 2°48.908 1.4 182 11.9 99580 88
2004-10-29 07:11:54 51°21.676 2°48.899 2 169 11.9 99580 88
2004-10-29 07:12:02 51°21.703 2°48.877 1.7 168 11.9 99580 88
2004-10-29 07:12:07 51°21.72 2°48.863 1.6 158 11.9 99580 88
2004-10-29 07:12:10 51°21.73 2°48.855 2 135 11.9 99580 88
2004-10-29 07:12:16 51°21.75 2°48.839 2.3 150 11.9 99580 88
2004-10-29 07:12:22 51°21.771 2°48.824 2 163 11.9 99590 88
2004-10-29 07:12:27 51°21.788 2°48.81 1.3 149 11.9 99590 88
2004-10-29 07:12:32 51°21.805 2°48.796 1.2 161 11.9 99580 88
2004-10-29 07:12:44 51°21.846 2°48.764 1 148 11.9 99580 88
2004-10-29 07:12:49 51°21.862 2°48.75 0.6 123 11.9 99580 88
2004-10-29 07:12:54 51°21.879 2°48.737 0.4 125 11.9 99580 88
2004-10-29 07:12:59 51°21.896 2°48.723 0.3 124 11.9 99580 88
2004-10-29 07:13:04 51°21.913 2°48.71 0.2 121 11.9 99580 88
2004-10-29 07:13:08 51°21.927 2°48.698 0.2 123 11.9 99580 88
2004-10-29 07:13:14 51°21.947 2°48.682 0.1 125 11.9 99580 88
2004-10-29 07:13:19 51°21.964 2°48.668 0.1 128 11.9 99580 88
2004-10-29 07:13:22 51°21.975 2°48.66 0.1 134 11.9 99580 88
2004-10-29 07:13:28 51°21.995 2°48.643 0.4 118 11.9 99580 88
2004-10-29 07:13:34 51°22.015 2°48.627 0.7 120 11.9 99580 88
2004-10-29 07:13:38 51°22.029 2°48.616 0.7 115 11.9 99580 88
2004-10-29 07:13:43 51°22.046 2°48.603 0.9 122 11.9 99580 88
2004-10-29 07:13:48 51°22.063 2°48.589 0.4 124 11.9 99580 88
2004-10-29 07:13:54 51°22.083 2°48.573 0.6 148 11.9 99580 88
2004-10-29 07:13:59 51°22.1 2°48.559 1.1 150 11.9 99580 88
2004-10-29 07:14:02 51°22.111 2°48.551 1.1 147 11.9 99580 88
2004-10-29 07:14:07 51°22.128 2°48.537 0.7 157 11.9 99580 88
2004-10-29 07:14:18 51°22.165 2°48.508 0.5 152 11.9 99580 88
2004-10-29 07:14:23 51°22.182 2°48.494 0.7 180 12 99580 88
2004-10-29 07:14:28 51°22.199 2°48.48 0.9 226 12 99580 88
2004-10-29 07:14:31 51°22.21 2°48.472 0.9 228 11.9 99580 88
2004-10-29 07:14:38 51°22.233 2°48.453 0.6 216 11.9 99580 88
2004-10-29 07:14:42 51°22.247 2°48.443 0.4 199 12 99590 88
2004-10-29 07:14:46 51°22.261 2°48.432 0.2 203 12 99590 88
2004-10-29 07:14:51 51°22.278 2°48.418 0.9 240 12 99580 88
2004-10-29 07:14:56 51°22.295 2°48.405 1.1 197 12 99580 88
2004-10-29 07:15:02 51°22.315 2°48.389 0.6 203 12 99580 88
2004-10-29 07:15:07 51°22.332 2°48.375 0.7 232 12 99580 88
2004-10-29 07:15:12 51°22.349 2°48.361 0.5 214 12 99580 88
2004-10-29 07:15:24 51°22.389 2°48.329 0.4 209 12 99580 88
2004-10-29 07:15:30 51°22.409 2°48.312 0.8 252 12 99580 88
2004-10-29 07:15:35 51°22.426 2°48.299 0.9 245 12 99590 88
2004-10-29 07:15:39 51°22.44 2°48.288 1 220 12 99590 88
2004-10-29 07:15:44 51°22.456 2°48.274 0.9 188 12 99590 88
2004-10-29 07:15:50 51°22.476 2°48.259 0.4 214 12 99590 88
2004-10-29 07:15:55 51°22.493 2°48.246 0.4 218 12 99590 88
2004-10-29 07:15:59 51°22.507 2°48.236 0.9 232 12 99590 88
2004-10-29 07:16:04 51°22.524 2°48.223 0.8 240 12 99590 88
2004-10-29 07:16:10 51°22.543 2°48.207 1.8 243 12 99590 88
2004-10-29 07:16:14 51°22.557 2°48.197 2.2 241 12 99580 88
2004-10-29 07:16:20 51°22.577 2°48.183 1.6 207 12 99580 88
2004-10-29 07:16:24 51°22.59 2°48.173 1.8 212 12 99590 88
2004-10-29 07:16:30 51°22.611 2°48.161 1.7 190 12 99590 88
2004-10-29 07:16:32 51°22.618 2°48.157 1.2 191 12 99590 88
2004-10-29 07:16:40 51°22.645 2°48.141 0.6 177 12 99590 88
2004-10-29 07:16:44 51°22.659 2°48.133 0.8 100 12 99590 88
2004-10-29 07:16:50 51°22.68 2°48.12 0.7 109 12 99590 88
2004-10-29 07:16:55 51°22.697 2°48.11 0.6 124 12.1 99590 88
2004-10-29 07:17:00 51°22.714 2°48.099 0.5 71 12.1 99590 88
2004-10-29 07:17:02 51°22.721 2°48.095 0.8 26 12.1 99580 88
2004-10-29 07:17:10 51°22.748 2°48.077 0.8 243 12.1 99580 88
2004-10-29 07:17:15 51°22.765 2°48.065 1.5 164 12.1 99590 87
2004-10-29 07:17:20 51°22.783 2°48.055 2.9 152 12.1 99590 87
2004-10-29 07:17:24 51°22.797 2°48.046 2.8 169 12.1 99590 88
2004-10-29 07:17:30 51°22.817 2°48.033 2 200 12.1 99590 88
2004-10-29 07:17:35 51°22.834 2°48.023 2.1 208 12.1 99590 87
2004-10-29 07:17:40 51°22.851 2°48.012 2.1 167 12.1 99590 87
2004-10-29 07:17:42 51°22.858 2°48.008 1.8 214 12.1 99590 87
2004-10-29 07:17:50 51°22.886 2°47.99 1.8 216 12.1 99590 87
2004-10-29 07:17:55 51°22.903 2°47.98 1.5 217 12.1 99580 87
2004-10-29 07:18:00 51°22.92 2°47.969 1.1 237 12.1 99580 87
2004-10-29 07:18:04 51°22.934 2°47.96 1.4 223 12.1 99590 87
2004-10-29 07:18:10 51°22.955 2°47.946 0.9 181 12.1 99590 87
2004-10-29 07:18:14 51°22.968 2°47.937 0.9 180 12.1 99590 87
2004-10-29 07:18:20 51°22.989 2°47.924 1.9 164 12.1 99590 87
2004-10-29 07:18:24 51°23.003 2°47.915 2 162 12.1 99590 87
2004-10-29 07:18:30 51°23.023 2°47.901 1.2 166 12.1 99590 87
2004-10-29 07:18:35 51°23.041 2°47.89 0.9 173 12.1 99590 87
2004-10-29 07:18:40 51°23.058 2°47.88 0.9 232 12.1 99590 87
2004-10-29 07:18:44 51°23.072 2°47.871 1 242 12.1 99590 87
2004-10-29 07:18:50 51°23.092 2°47.857 1.3 176 12.1 99590 87
2004-10-29 07:18:54 51°23.106 2°47.849 0.9 173 12.1 99590 87
2004-10-29 07:18:59 51°23.123 2°47.837 2.7 177 12.1 99590 87
2004-10-29 07:19:05 51°23.144 2°47.824 2.9 173 12.2 99590 87
2004-10-29 07:19:10 51°23.161 2°47.813 1.4 188 12.2 99590 87
2004-10-29 07:19:15 51°23.178 2°47.801 2.4 171 12.2 99590 87
2004-10-29 07:19:18 51°23.189 2°47.794 2.9 210 12.2 99590 87
2004-10-29 07:19:24 51°23.21 2°47.781 3 212 12.2 99590 87
2004-10-29 07:19:30 51°23.23 2°47.768 2.8 206 12.2 99590 87
2004-10-29 07:19:34 51°23.244 2°47.761 2.7 199 12.2 99600 87
2004-10-29 07:19:40 51°23.265 2°47.747 3.1 174 12.2 99600 87
2004-10-29 07:19:44 51°23.279 2°47.738 2.8 175 12.3 99590 87
2004-10-29 07:19:50 51°23.299 2°47.725 2.3 197 12.3 99590 87
2004-10-29 07:19:55 51°23.317 2°47.715 2.3 188 12.2 99590 86
2004-10-29 07:19:59 51°23.331 2°47.706 2.1 187 12.2 99590 86
2004-10-29 07:20:05 51°23.351 2°47.693 1.7 180 12.2 99590 86
2004-10-29 07:20:10 51°23.369 2°47.683 2.8 169 12.2 99590 86
2004-10-29 07:20:14 51°23.383 2°47.674 2.5 177 12.2 99590 86
2004-10-29 07:20:20 51°23.403 2°47.66 2.3 186 12.2 99590 86
2004-10-29 07:20:34 51°23.451 2°47.629 2.2 166 12.2 99590 86
2004-10-29 07:20:39 51°23.468 2°47.618 2.2 158 12.2 99590 86
2004-10-29 07:20:42 51°23.479 2°47.612 2.6 150 12.2 99590 85
2004-10-29 07:20:48 51°23.499 2°47.599 2.6 139 12.2 99590 85
2004-10-29 07:20:54 51°23.52 2°47.586 3.5 170 12.2 99600 85
2004-10-29 07:20:58 51°23.534 2°47.578 1.2 158 12.2 99600 85
2004-10-29 07:21:03 51°23.551 2°47.567 0.9 176 12.2 99590 85
2004-10-29 07:21:08 51°23.569 2°47.555 1.7 157 12.2 99590 85
2004-10-29 07:21:14 51°23.589 2°47.542 1.4 186 12.2 99590 85
2004-10-29 07:21:18 51°23.603 2°47.533 3.4 212 12.2 99590 85
2004-10-29 07:21:22 51°23.617 2°47.525 2 191 12.2 99590 85
2004-10-29 07:21:27 51°23.634 2°47.514 1.7 190 12.2 99590 85
2004-10-29 07:21:34 51°23.659 2°47.499 1.1 183 12.2 99590 85
2004-10-29 07:21:38 51°23.672 2°47.49 0.8 180 12.2 99590 85
2004-10-29 07:21:43 51°23.69 2°47.48 1.6 152 12.2 99600 85
2004-10-29 07:21:48 51°23.707 2°47.469 1.7 152 12.2 99600 85
2004-10-29 07:21:54 51°23.728 2°47.455 1.4 168 12.2 99590 85
2004-10-29 07:21:59 51°23.745 2°47.443 1.5 199 12.2 99590 85
2004-10-29 07:22:02 51°23.755 2°47.436 1.7 213 12.2 99600 85
2004-10-29 07:22:09 51°23.779 2°47.42 2.1 184 12.2 99600 85
2004-10-29 07:22:12 51°23.79 2°47.413 1.7 156 12.3 99590 85
2004-10-29 07:22:18 51°23.81 2°47.401 2 167 12.3 99590 85
2004-10-29 07:22:24 51°23.831 2°47.388 2.2 159 12.3 99600 85
2004-10-29 07:22:28 51°23.845 2°47.38 1.3 186 12.3 99600 85
2004-10-29 07:22:34 51°23.865 2°47.368 0.9 180 12.3 99590 85
2004-10-29 07:22:38 51°23.879 2°47.358 1.3 171 12.3 99590 85
2004-10-29 07:22:44 51°23.9 2°47.344 1.3 187 12.3 99590 85
2004-10-29 07:22:47 51°23.91 2°47.337 1.9 162 12.3 99590 85
2004-10-29 07:22:58 51°23.947 2°47.312 2.5 187 12.3 99590 85
2004-10-29 07:23:03 51°23.965 2°47.301 2 188 12.3 99600 85
2004-10-29 07:23:06 51°23.975 2°47.294 2.7 148 12.3 99600 85
2004-10-29 07:23:13 51°23.999 2°47.28 2.3 199 12.4 99590 85
2004-10-29 07:23:18 51°24.017 2°47.269 1.5 217 12.4 99590 85
2004-10-29 07:23:22 51°24.03 2°47.26 1.6 221 12.4 99600 85
2004-10-29 07:23:28 51°24.051 2°47.248 2.2 210 12.4 99600 85
2004-10-29 07:23:33 51°24.069 2°47.237 0.8 201 12.4 99600 85
2004-10-29 07:23:38 51°24.086 2°47.227 0.9 174 12.4 99600 85
2004-10-29 07:23:42 51°24.1 2°47.218 0.4 162 12.4 99590 85
2004-10-29 07:23:56 51°24.148 2°47.187 1.8 152 12.4 99590 85
2004-10-29 07:24:06 51°24.182 2°47.166 1 212 12.4 99590 85
2004-10-29 07:24:14 51°24.209 2°47.149 1.5 147 12.5 99590 85
2004-10-29 07:24:19 51°24.226 2°47.138 1.7 167 12.5 99590 85
2004-10-29 07:24:23 51°24.24 2°47.13 1.2 205 12.5 99590 85
2004-10-29 07:24:26 51°24.25 2°47.123 1.1 195 12.5 99590 85
2004-10-29 07:24:34 51°24.278 2°47.105 2.6 213 12.5 99590 85
2004-10-29 07:24:39 51°24.295 2°47.094 1.1 153 12.5 99590 85
2004-10-29 07:24:43 51°24.308 2°47.086 1.1 154 12.5 99590 85
2004-10-29 07:24:48 51°24.325 2°47.074 1.1 172 12.5 99590 85
2004-10-29 07:24:54 51°24.346 2°47.061 1.4 204 12.5 99600 85
2004-10-29 07:24:59 51°24.363 2°47.049 2 148 12.5 99600 85
2004-10-29 07:25:03 51°24.376 2°47.041 1.3 180 12.5 99590 85
2004-10-29 07:25:08 51°24.393 2°47.029 1.8 182 12.5 99590 85
2004-10-29 07:25:14 51°24.414 2°47.016 2.1 170 12.5 99590 84
2004-10-29 07:25:19 51°24.431 2°47.005 1.3 197 12.5 99590 84
2004-10-29 07:25:24 51°24.448 2°46.995 1.7 197 12.5 99590 84
2004-10-29 07:25:28 51°24.461 2°46.985 2.7 217 12.5 99590 84
2004-10-29 07:25:34 51°24.482 2°46.973 2.5 201 12.5 99590 84
2004-10-29 07:25:39 51°24.499 2°46.961 2.8 187 12.5 99590 84
2004-10-29 07:25:44 51°24.516 2°46.951 2.8 202 12.6 99600 84
2004-10-29 07:25:48 51°24.53 2°46.942 3.9 197 12.6 99600 84
2004-10-29 07:25:54 51°24.55 2°46.929 2.9 178 12.5 99600 84
2004-10-29 07:25:58 51°24.564 2°46.92 2.2 188 12.5 99600 84
2004-10-29 07:26:04 51°24.585 2°46.907 2.2 179 12.5 99600 84
2004-10-29 07:26:09 51°24.602 2°46.896 2.3 195 12.5 99600 84
2004-10-29 07:26:12 51°24.613 2°46.889 2.8 197 12.5 99600 83
2004-10-29 07:26:18 51°24.634 2°46.876 2.3 208 12.5 99600 83
2004-10-29 07:26:24 51°24.654 2°46.861 2.4 184 12.5 99590 84
2004-10-29 07:26:28 51°24.668 2°46.854 1.8 199 12.5 99590 84
2004-10-29 07:26:34 51°24.688 2°46.838 2.2 196 12.6 99600 84
2004-10-29 07:26:39 51°24.706 2°46.828 1.9 191 12.6 99600 84
2004-10-29 07:26:44 51°24.723 2°46.815 1.4 196 12.6 99590 83
2004-10-29 07:26:49 51°24.74 2°46.805 1.9 167 12.6 99590 83
2004-10-29 07:26:54 51°24.757 2°46.792 2.2 207 12.6 99590 83
2004-10-29 07:26:59 51°24.774 2°46.782 1.5 172 12.6 99590 83
2004-10-29 07:27:04 51°24.791 2°46.769 1.5 181 12.6 99590 83
2004-10-29 07:27:06 51°24.798 2°46.765 1.8 187 12.6 99590 83
2004-10-29 07:27:14 51°24.825 2°46.746 1.8 172 12.6 99590 83
2004-10-29 07:27:19 51°24.843 2°46.734 1.7 212 12.6 99590 83
2004-10-29 07:27:24 51°24.859 2°46.722 1.5 206 12.6 99590 83
2004-10-29 07:27:28 51°24.873 2°46.714 1.6 182 12.6 99590 83
2004-10-29 07:27:34 51°24.893 2°46.7 1.9 176 12.6 99590 83
2004-10-29 07:27:38 51°24.907 2°46.692 3 188 12.6 99590 83
2004-10-29 07:27:43 51°24.924 2°46.681 1.9 175 12.6 99590 83
2004-10-29 07:27:46 51°24.935 2°46.674 3.4 176 12.6 99590 83
2004-10-29 07:27:52 51°24.955 2°46.661 3.6 168 12.6 99590 83
2004-10-29 07:28:12 51°25.023 2°46.616 2.5 203 12.6 99600 82
2004-10-29 07:28:16 51°25.036 2°46.607 1.9 176 12.6 99600 82
2004-10-29 07:28:22 51°25.057 2°46.594 2.1 200 12.6 99600 82
2004-10-29 07:28:27 51°25.074 2°46.583 1.7 200 12.6 99600 82
2004-10-29 07:28:32 51°25.09 2°46.572 1.6 201 12.6 99590 82
2004-10-29 07:28:35 51°25.1 2°46.565 2.8 213 12.6 99590 82
2004-10-29 07:28:41 51°25.121 2°46.553 3 197 12.6 99590 81
2004-10-29 07:28:46 51°25.138 2°46.542 2 212 12.6 99590 81
2004-10-29 07:28:52 51°25.158 2°46.529 3.2 205 12.6 99590 81
2004-10-29 07:28:56 51°25.172 2°46.521 3.6 203 12.6 99590 81
2004-10-29 07:29:00 51°25.186 2°46.512 3.3 218 12.6 99600 81
2004-10-29 07:29:07 51°25.21 2°46.497 2.1 150 12.6 99600 81
2004-10-29 07:29:12 51°25.227 2°46.488 2.9 160 12.6 99600 81
2004-10-29 07:29:14 51°25.234 2°46.485 3.2 162 12.6 99600 81
2004-10-29 07:29:22 51°25.261 2°46.471 3.8 156 12.6 99600 81
2004-10-29 07:29:27 51°25.278 2°46.463 3.4 153 12.6 99600 81
2004-10-29 07:29:32 51°25.296 2°46.456 3.1 158 12.6 99600 81
2004-10-29 07:29:36 51°25.309 2°46.451 2.6 192 12.6 99600 81
2004-10-29 07:29:39 51°25.32 2°46.446 2.5 178 12.7 99600 81
2004-10-29 07:29:47 51°25.348 2°46.435 2.4 223 12.7 99600 81
2004-10-29 07:29:50 51°25.358 2°46.43 1.8 202 12.7 99600 81
2004-10-29 07:29:58 51°25.386 2°46.418 1.2 184 12.7 99600 81
2004-10-29 07:30:03 51°25.403 2°46.409 2.4 153 12.7 99600 81
2004-10-29 07:30:07 51°25.417 2°46.404 2.8 141 12.7 99600 81
2004-10-29 07:30:13 51°25.438 2°46.394 2.3 180 12.7 99600 82
2004-10-29 07:30:18 51°25.456 2°46.386 2.3 195 12.7 99600 82
2004-10-29 07:30:22 51°25.47 2°46.379 1.5 180 12.7 99600 82
2004-10-29 07:30:27 51°25.487 2°46.37 1.7 195 12.7 99600 82
2004-10-29 07:30:32 51°25.505 2°46.362 1.2 193 12.7 99600 82
2004-10-29 07:30:38 51°25.526 2°46.351 2.1 198 12.7 99600 82
2004-10-29 07:30:43 51°25.544 2°46.343 1.8 184 12.7 99600 82
2004-10-29 07:30:47 51°25.558 2°46.336 1.6 198 12.7 99600 82
2004-10-29 07:30:51 51°25.572 2°46.329 1.6 178 12.7 99600 82
2004-10-29 07:30:58 51°25.596 2°46.317 2.2 203 12.7 99600 82
2004-10-29 07:31:02 51°25.611 2°46.311 2.3 189 12.7 99600 81
2004-10-29 07:31:07 51°25.628 2°46.302 2.1 195 12.7 99600 81
2004-10-29 07:31:14 51°25.652 2°46.291 1.6 196 12.8 99600 81
2004-10-29 07:31:18 51°25.666 2°46.284 2.5 185 12.8 99600 81
2004-10-29 07:31:23 51°25.684 2°46.275 2.9 184 12.7 99600 81
2004-10-29 07:31:28 51°25.701 2°46.267 2.4 183 12.7 99600 81
2004-10-29 07:31:31 51°25.711 2°46.262 2.3 203 12.8 99610 81
2004-10-29 07:31:38 51°25.736 2°46.251 1.6 181 12.8 99610 81
2004-10-29 07:31:43 51°25.753 2°46.242 2.5 189 12.8 99600 81
2004-10-29 07:31:44 51°25.756 2°46.24 1.7 179 12.8 99600 81
2004-10-29 07:31:56 51°25.798 2°46.22 2.4 213 12.8 99600 81
2004-10-29 07:32:02 51°25.819 2°46.21 2.3 188 12.7 99600 80
2004-10-29 07:32:07 51°25.836 2°46.201 2.1 187 12.7 99600 80
2004-10-29 07:32:11 51°25.85 2°46.194 2.3 188 12.7 99600 80
2004-10-29 07:32:16 51°25.868 2°46.186 2.4 178 12.7 99600 80
2004-10-29 07:32:21 51°25.885 2°46.178 1.9 191 12.7 99610 80
2004-10-29 07:32:27 51°25.905 2°46.168 2.3 194 12.7 99610 80
2004-10-29 07:32:32 51°25.922 2°46.161 1.8 198 12.7 99600 80
2004-10-29 07:32:34 51°25.929 2°46.158 2.6 215 12.7 99600 80
2004-10-29 07:32:41 51°25.953 2°46.149 3.3 172 12.8 99610 80
2004-10-29 07:32:47 51°25.974 2°46.14 3.8 173 12.8 99610 80
2004-10-29 07:32:52 51°25.992 2°46.132 2.5 182 12.8 99600 80
2004-10-29 07:32:55 51°26.002 2°46.127 2.7 211 12.8 99600 80
2004-10-29 07:33:02 51°26.026 2°46.116 2.8 170 12.8 99610 81
2004-10-29 07:33:07 51°26.044 2°46.108 3.6 174 12.8 99610 81
2004-10-29 07:33:11 51°26.058 2°46.101 2.7 181 12.9 99610 80
2004-10-29 07:33:16 51°26.075 2°46.093 2.6 170 12.9 99610 80
2004-10-29 07:33:22 51°26.096 2°46.083 2.3 157 12.9 99610 80
2004-10-29 07:33:32 51°26.13 2°46.067 2.2 187 12.9 99600 80
2004-10-29 07:33:34 51°26.137 2°46.064 2.8 200 12.9 99600 80
2004-10-29 07:33:42 51°26.165 2°46.051 3.1 207 12.9 99610 80
2004-10-29 07:33:47 51°26.182 2°46.043 2.1 189 12.9 99610 80
2004-10-29 07:33:52 51°26.199 2°46.035 2.5 194 12.9 99610 79
2004-10-29 07:33:56 51°26.213 2°46.028 2.3 178 12.9 99610 79
2004-10-29 07:34:02 51°26.234 2°46.019 2 172 12.9 99610 79
2004-10-29 07:34:06 51°26.248 2°46.012 3 170 12.9 99610 79
2004-10-29 07:34:09 51°26.259 2°46.007 2.9 164 12.9 99610 79
2004-10-29 07:34:23 51°26.308 2°45.983 2.8 177 12.9 99610 79
2004-10-29 07:34:30 51°26.332 2°45.972 2.3 177 12.9 99610 79
2004-10-29 07:34:35 51°26.35 2°45.963 1.7 167 12.9 99600 79
2004-10-29 07:34:39 51°26.364 2°45.956 1.7 170 12.9 99600 79
2004-10-29 07:34:47 51°26.392 2°45.942 2.2 223 12.9 99610 79
2004-10-29 07:34:50 51°26.402 2°45.936 1.9 208 12.9 99610 79
2004-10-29 07:34:58 51°26.43 2°45.923 2.2 216 12.9 99610 79
2004-10-29 07:35:03 51°26.447 2°45.914 1.9 188 13 99610 79
2004-10-29 07:35:07 51°26.461 2°45.908 2.1 215 13 99610 79
2004-10-29 07:35:13 51°26.482 2°45.898 1.2 222 12.9 99610 79
2004-10-29 07:35:18 51°26.499 2°45.889 1.1 229 12.9 99610 79
2004-10-29 07:35:22 51°26.513 2°45.882 1.3 184 13 99610 79
2004-10-29 07:35:27 51°26.531 2°45.874 1 199 13 99610 79
2004-10-29 07:35:31 51°26.545 2°45.867 0.8 170 13 99610 79
2004-10-29 07:35:38 51°26.569 2°45.856 1 184 13 99610 79
2004-10-29 07:35:40 51°26.576 2°45.852 1.2 177 13 99610 79
2004-10-29 07:35:48 51°26.604 2°45.838 0.9 186 13 99610 79
2004-10-29 07:35:50 51°26.611 2°45.834 0.9 203 13 99610 79
2004-10-29 07:35:58 51°26.639 2°45.819 1.4 229 13 99610 79
2004-10-29 07:36:02 51°26.653 2°45.813 2.1 202 13 99600 79
2004-10-29 07:36:08 51°26.674 2°45.802 1.4 205 13 99600 79
2004-10-29 07:36:12 51°26.688 2°45.795 1.4 190 13 99610 79
2004-10-29 07:36:18 51°26.709 2°45.785 0.9 194 13 99610 79
2004-10-29 07:36:23 51°26.726 2°45.776 0.9 146 13 99610 80
2004-10-29 07:36:28 51°26.743 2°45.767 1.4 186 13 99610 80
2004-10-29 07:36:31 51°26.753 2°45.762 1.6 169 13.1 99610 80
2004-10-29 07:36:38 51°26.777 2°45.751 3 181 13.1 99610 80
2004-10-29 07:36:42 51°26.791 2°45.744 1.5 196 13.1 99600 80
2004-10-29 07:36:48 51°26.811 2°45.735 2.8 199 13.1 99600 80
2004-10-29 07:36:51 51°26.822 2°45.73 2.4 207 13.1 99600 80
2004-10-29 07:37:06 51°26.873 2°45.705 2.2 211 13.1 99610 80
2004-10-29 07:37:10 51°26.887 2°45.698 2.5 191 13.1 99610 80
2004-10-29 07:37:15 51°26.904 2°45.689 3.8 214 13.1 99600 79
2004-10-29 07:37:21 51°26.925 2°45.678 1.9 185 13.1 99600 79
2004-10-29 07:37:26 51°26.942 2°45.67 1.9 178 13.1 99610 79
2004-10-29 07:37:30 51°26.956 2°45.662 1.4 180 13.1 99610 79
2004-10-29 07:37:36 51°26.977 2°45.653 2.1 160 13 99610 79
2004-10-29 07:37:41 51°26.995 2°45.645 1.9 178 13 99610 79
2004-10-29 07:37:46 51°27.012 2°45.638 1.9 173 13 99610 79
2004-10-29 07:37:57 51°27.051 2°45.619 0.4 174 13 99610 79
2004-10-29 07:38:02 51°27.068 2°45.61 0.7 184 13 99610 79
2004-10-29 07:38:07 51°27.085 2°45.601 1.2 180 13 99610 79
2004-10-29 07:38:12 51°27.103 2°45.593 1.3 256 13 99610 79
2004-10-29 07:38:16 51°27.117 2°45.585 2.6 193 13 99610 79
2004-10-29 07:38:20 51°27.131 2°45.579 2.4 188 13.1 99600 79
2004-10-29 07:38:32 51°27.172 2°45.557 1.6 207 13.1 99610 80
2004-10-29 07:38:37 51°27.19 2°45.547 2.5 186 13.1 99610 80
2004-10-29 07:38:42 51°27.207 2°45.538 2.7 201 13.1 99610 79
2004-10-29 07:38:46 51°27.221 2°45.531 2.4 189 13.1 99610 79
2004-10-29 07:38:52 51°27.242 2°45.52 1.5 183 13.1 99610 79
2004-10-29 07:38:57 51°27.26 2°45.511 2.1 194 13.1 99610 79
2004-10-29 07:39:02 51°27.277 2°45.502 2.1 196 13.1 99610 79
2004-10-29 07:39:06 51°27.291 2°45.494 2.7 179 13.1 99610 79
2004-10-29 07:39:12 51°27.312 2°45.484 2.1 198 13.1 99600 79
2004-10-29 07:39:14 51°27.318 2°45.48 2 226 13.1 99600 79
2004-10-29 07:39:23 51°27.349 2°45.465 2.9 176 13 99600 79
2004-10-29 07:39:29 51°27.37 2°45.455 1.4 199 13 99600 79
2004-10-29 07:39:34 51°27.387 2°45.446 1.8 207 13 99600 79
2004-10-29 07:39:38 51°27.401 2°45.439 1.8 205 13 99600 79
2004-10-29 07:39:44 51°27.422 2°45.43 1.7 177 13 99610 79
2004-10-29 07:39:48 51°27.436 2°45.423 1.7 201 13 99610 79
2004-10-29 07:39:54 51°27.457 2°45.413 1.6 189 13.1 99600 79
2004-10-29 07:39:59 51°27.474 2°45.404 2 217 13.1 99600 79
2004-10-29 07:40:03 51°27.488 2°45.397 1.5 195 13.1 99610 79
2004-10-29 07:40:09 51°27.509 2°45.388 2.7 171 13.1 99610 79
2004-10-29 07:40:14 51°27.526 2°45.38 3.5 166 13.1 99600 79
2004-10-29 07:40:18 51°27.54 2°45.374 2.9 186 13.1 99600 79
2004-10-29 07:40:23 51°27.558 2°45.365 2.9 193 13.1 99610 79
2004-10-29 07:40:28 51°27.575 2°45.356 2.3 181 13.1 99610 79
2004-10-29 07:40:34 51°27.595 2°45.346 3.9 163 13.1 99600 79
2004-10-29 07:40:38 51°27.609 2°45.34 3.5 168 13.1 99600 79
2004-10-29 07:40:44 51°27.63 2°45.331 3.1 167 13.1 99610 79
2004-10-29 07:40:48 51°27.644 2°45.325 3.2 184 13.1 99610 79
2004-10-29 07:40:54 51°27.665 2°45.315 2.1 159 13.1 99610 78
2004-10-29 07:40:58 51°27.679 2°45.309 2.7 166 13.1 99610 78
2004-10-29 07:41:04 51°27.699 2°45.299 2.2 202 13.1 99610 78
2004-10-29 07:41:07 51°27.71 2°45.294 3 180 13.1 99610 78
2004-10-29 07:41:14 51°27.734 2°45.284 3.8 211 13.1 99600 78
2004-10-29 07:41:19 51°27.751 2°45.277 2.5 165 13.1 99600 78
2004-10-29 07:41:24 51°27.769 2°45.269 3.3 215 13.1 99610 78
2004-10-29 07:41:29 51°27.786 2°45.261 2.7 194 13.1 99610 78
2004-10-29 07:41:34 51°27.804 2°45.253 2.4 194 13.1 99610 78
2004-10-29 07:41:38 51°27.818 2°45.246 4.6 199 13.1 99610 78
2004-10-29 07:41:44 51°27.839 2°45.236 3.7 200 13.1 99610 79
2004-10-29 07:41:49 51°27.857 2°45.227 4.2 214 13.1 99610 79
2004-10-29 07:41:52 51°27.867 2°45.221 3.7 203 13.1 99610 79
2004-10-29 07:41:59 51°27.892 2°45.209 3.8 216 13.1 99610 79
2004-10-29 07:42:02 51°27.902 2°45.205 3.7 217 13.2 99610 78
2004-10-29 07:42:09 51°27.927 2°45.192 3.5 199 13.2 99610 78
2004-10-29 07:42:14 51°27.944 2°45.183 3.7 206 13.1 99610 77
2004-10-29 07:42:18 51°27.958 2°45.176 3.4 218 13.1 99610 77
2004-10-29 07:42:23 51°27.975 2°45.168 2.8 226 13.1 99610 77
2004-10-29 07:42:28 51°27.993 2°45.159 3.3 223 13.1 99610 77
2004-10-29 07:42:34 51°28.014 2°45.149 3.9 215 13.1 99610 77
2004-10-29 07:42:38 51°28.027 2°45.142 3.4 211 13.1 99610 77
2004-10-29 07:42:43 51°28.045 2°45.135 3.3 217 13.1 99610 77
2004-10-29 07:42:48 51°28.062 2°45.125 2.6 205 13.1 99610 77
2004-10-29 07:42:54 51°28.083 2°45.114 3.4 222 13.1 99610 77
2004-10-29 07:42:59 51°28.101 2°45.105 2.4 216 13.1 99610 77
2004-10-29 07:43:04 51°28.118 2°45.095 2.6 202 13.1 99610 77
2004-10-29 07:43:08 51°28.132 2°45.088 2.3 205 13.1 99610 77
2004-10-29 07:43:14 51°28.154 2°45.076 2.8 208 13.1 99610 77
2004-10-29 07:43:16 51°28.161 2°45.072 3 209 13.1 99610 77
2004-10-29 07:43:28 51°28.202 2°45.05 3.3 198 13.1 99610 77
2004-10-29 07:43:34 51°28.224 2°45.04 3.3 205 13 99610 77
2004-10-29 07:43:38 51°28.238 2°45.032 3.8 206 13 99610 77
2004-10-29 07:43:44 51°28.259 2°45.021 3.6 206 13.1 99610 76
2004-10-29 07:43:49 51°28.276 2°45.012 3.6 194 13.1 99610 76
2004-10-29 07:43:54 51°28.294 2°45.003 3.2 216 13 99610 76
2004-10-29 07:43:58 51°28.308 2°44.996 2.4 208 13 99610 76
2004-10-29 07:44:02 51°28.322 2°44.989 3.7 209 13 99610 76
2004-10-29 07:44:12 51°28.357 2°44.969 3.4 210 13 99610 77
2004-10-29 07:44:15 51°28.368 2°44.963 3 208 13 99610 77
2004-10-29 07:44:22 51°28.392 2°44.951 3.3 195 13.1 99610 77
2004-10-29 07:44:27 51°28.41 2°44.944 2.4 179 13.1 99610 77
2004-10-29 07:44:31 51°28.424 2°44.937 2.6 209 13.1 99610 76
2004-10-29 07:44:36 51°28.442 2°44.93 2.8 199 13.1 99610 76
2004-10-29 07:44:42 51°28.463 2°44.919 3 207 13.1 99610 76
2004-10-29 07:44:46 51°28.477 2°44.913 3.3 199 13.1 99610 76
2004-10-29 07:44:52 51°28.498 2°44.903 3.5 202 13.2 99610 77
2004-10-29 07:44:57 51°28.515 2°44.894 2.9 182 13.2 99610 77
2004-10-29 07:45:02 51°28.532 2°44.886 2.6 196 13.2 99610 76
2004-10-29 07:45:06 51°28.546 2°44.88 2.1 181 13.2 99610 76
2004-10-29 07:45:12 51°28.567 2°44.87 2.2 169 13.2 99620 76
2004-10-29 07:45:17 51°28.584 2°44.862 2 195 13.2 99620 76
2004-10-29 07:45:22 51°28.602 2°44.856 2.6 212 13.2 99610 76
2004-10-29 07:45:27 51°28.619 2°44.847 2.5 192 13.2 99610 76
2004-10-29 07:45:31 51°28.632 2°44.843 2.5 178 13.2 99610 76
2004-10-29 07:45:37 51°28.653 2°44.832 3.4 199 13.2 99610 76
2004-10-29 07:45:42 51°28.671 2°44.825 4 208 13.2 99610 76
2004-10-29 07:45:47 51°28.688 2°44.817 3.1 199 13.2 99610 76
2004-10-29 07:45:50 51°28.698 2°44.812 3.3 214 13.2 99610 76
2004-10-29 07:45:57 51°28.722 2°44.801 3.3 209 13.2 99610 76
2004-10-29 07:46:01 51°28.736 2°44.795 2.6 236 13.3 99610 77
2004-10-29 07:46:07 51°28.757 2°44.785 2.1 248 13.3 99610 77
2004-10-29 07:46:12 51°28.774 2°44.777 3.7 238 13.3 99610 76
2004-10-29 07:46:16 51°28.788 2°44.769 3.2 220 13.3 99610 76
2004-10-29 07:46:19 51°28.798 2°44.764 3.2 219 13.3 99620 76
2004-10-29 07:46:26 51°28.823 2°44.752 3.3 201 13.3 99620 76
2004-10-29 07:46:32 51°28.843 2°44.742 3.6 215 13.3 99620 76
2004-10-29 07:46:36 51°28.856 2°44.736 3.2 204 13.3 99620 76
2004-10-29 07:46:42 51°28.877 2°44.727 2.7 184 13.3 99610 76
2004-10-29 07:46:47 51°28.894 2°44.72 3.6 209 13.3 99610 76
2004-10-29 07:46:52 51°28.911 2°44.711 3.8 189 13.3 99620 76
2004-10-29 07:46:56 51°28.925 2°44.705 3 214 13.3 99620 76
2004-10-29 07:47:02 51°28.945 2°44.696 3.3 205 13.3 99620 75
2004-10-29 07:47:07 51°28.962 2°44.688 2.7 215 13.3 99620 75
2004-10-29 07:47:12 51°28.98 2°44.681 2.6 244 13.3 99610 76
2004-10-29 07:47:16 51°28.993 2°44.673 1.6 244 13.3 99610 76
2004-10-29 07:47:22 51°29.014 2°44.665 1.8 314 13.3 99620 76
2004-10-29 07:47:26 51°29.028 2°44.657 1.6 200 13.3 99620 76
2004-10-29 07:47:32 51°29.048 2°44.648 2.1 227 13.3 99610 76
2004-10-29 07:47:36 51°29.062 2°44.642 2.4 216 13.3 99610 76
2004-10-29 07:47:39 51°29.073 2°44.637 2.3 212 13.3 99620 76
2004-10-29 07:47:46 51°29.097 2°44.627 2.1 192 13.3 99620 76
2004-10-29 07:47:52 51°29.118 2°44.618 2.5 216 13.3 99610 76
2004-10-29 07:47:57 51°29.135 2°44.611 2.6 233 13.3 99610 76
2004-10-29 07:48:00 51°29.145 2°44.606 2.2 252 13.3 99610 76
2004-10-29 07:48:07 51°29.168 2°44.591 2.5 253 13.3 99610 76
2004-10-29 07:48:15 51°29.193 2°44.576 3.1 248 13.4 99610 76
2004-10-29 07:48:20 51°29.207 2°44.569 4.2 216 13.4 99610 76
2004-10-29 07:48:30 51°29.234 2°44.556 3.5 197 13.3 99620 76
2004-10-29 07:48:36 51°29.249 2°44.551 2.5 180 13.3 99620 76
2004-10-29 07:48:42 51°29.264 2°44.548 2.7 187 13.3 99610 76
2004-10-29 07:48:47 51°29.276 2°44.545 3.1 178 13.3 99610 76
2004-10-29 07:48:51 51°29.286 2°44.544 5.3 174 13.2 99620 76
2004-10-29 07:48:56 51°29.297 2°44.544 6.3 168 13.2 99620 76
2004-10-29 07:49:02 51°29.31 2°44.544 6.9 164 13.3 99620 76
2004-10-29 07:49:07 51°29.321 2°44.546 5.4 145 13.3 99620 76
2004-10-29 07:49:12 51°29.332 2°44.548 6.7 160 13.3 99610 77
2004-10-29 07:49:16 51°29.34 2°44.551 8.1 146 13.3 99610 77
2004-10-29 07:49:22 51°29.352 2°44.556 7.5 144 13.3 99610 76
2004-10-29 07:49:27 51°29.361 2°44.56 7.3 164 13.3 99610 76
2004-10-29 07:49:32 51°29.371 2°44.563 6.8 157 13.3 99610 76
2004-10-29 07:49:36 51°29.379 2°44.566 7 167 13.3 99610 76
2004-10-29 07:49:42 51°29.391 2°44.569 7.2 162 13.3 99600 76
2004-10-29 07:49:47 51°29.4 2°44.571 6.9 174 13.3 99600 76
2004-10-29 07:49:52 51°29.409 2°44.571 6.7 151 13.3 99610 76
2004-10-29 07:49:56 51°29.416 2°44.572 5.5 170 13.3 99610 76
2004-10-29 07:50:02 51°29.426 2°44.573 7.7 161 13.3 99610 76
2004-10-29 07:50:07 51°29.433 2°44.574 7.6 153 13.3 99610 76
2004-10-29 07:50:12 51°29.439 2°44.576 7.4 149 13.2 99610 76
2004-10-29 07:50:16 51°29.444 2°44.578 9.3 140 13.2 99610 76
2004-10-29 07:50:22 51°29.451 2°44.582 8.7 145 13.2 99610 76
2004-10-29 07:50:27 51°29.456 2°44.585 10.5 136 13.2 99610 76
2004-10-29 07:50:30 51°29.459 2°44.587 10.7 126 13.2 99610 77
2004-10-29 07:50:36 51°29.464 2°44.591 9.2 134 13.2 99610 77
2004-10-29 07:50:42 51°29.468 2°44.596 10.9 136 13.2 99600 77
2004-10-29 07:50:47 51°29.472 2°44.6 10.5 130 13.2 99600 77
2004-10-29 07:50:50 51°29.473 2°44.602 9 136 13.2 99600 77
2004-10-29 07:51:03 51°29.481 2°44.611 9.8 44 13.2 99590 76
2004-10-29 07:51:08 51°29.483 2°44.614 10.1 132 13.2 99590 76
2004-10-29 07:51:12 51°29.485 2°44.616 10 131 13.1 99590 76
2004-10-29 07:51:28 51°29.492 2°44.625 9.3 43 13.1 99590 76
2004-10-29 07:51:34 51°29.495 2°44.627 11.2 138 13.1 99590 76